sensor_id;sensor_type;location;lat;lon;timestamp;temperature;humidity
12688;DHT22;6408;59.388;17.798;2024-02-26T00:01:14;0.90;99.90
12688;DHT22;6408;59.388;17.798;2024-02-26T00:03:41;0.90;99.90
12688;DHT22;6408;59.388;17.798;2024-02-26T00:06:12;1.00;99.90
12688;DHT22;6408;59.388;17.798;2024-02-26T00:08:42;1.00;99.90
12688;DHT22;6408;59.388;17.798;2024-02-26T00:11:10;1.00;99.90
12688;DHT22;6408;59.388;17.798;2024-02-26T00:13:38;1.00;99.90
12688;DHT22;6408;59.388;17.798;2024-02-26T00:16:08;1.20;99.90
12688;DHT22;6408;59.388;17.798;2024-02-26T00:18:35;1.30;99.90
12688;DHT22;6408;59.388;17.798;2024-02-26T00:21:03;1.40;99.90
12688;DHT22;6408;59.388;17.798;2024-02-26T00:23:30;1.40;99.90
12688;DHT22;6408;59.388;17.798;2024-02-26T00:25:58;1.40;99.90
12688;DHT22;6408;59.388;17.798;2024-02-26T00:28:28;1.40;99.90
12688;DHT22;6408;59.388;17.798;2024-02-26T00:30:55;1.30;99.90
12688;DHT22;6408;59.388;17.798;2024-02-26T00:33:24;1.30;99.90
12688;DHT22;6408;59.388;17.798;2024-02-26T00:35:52;1.40;99.90
12688;DHT22;6408;59.388;17.798;2024-02-26T00:38:20;1.30;99.90
12688;DHT22;6408;59.388;17.798;2024-02-26T00:40:47;1.50;99.90
12688;DHT22;6408;59.388;17.798;2024-02-26T00:43:14;1.50;99.90
12688;DHT22;6408;59.388;17.798;2024-02-26T00:45:42;1.40;99.90
12688;DHT22;6408;59.388;17.798;2024-02-26T00:48:10;1.40;99.90
12688;DHT22;6408;59.388;17.798;2024-02-26T00:50:41;1.30;99.90
12688;DHT22;6408;59.388;17.798;2024-02-26T00:53:08;1.30;99.90
12688;DHT22;6408;59.388;17.798;2024-02-26T00:55:36;1.30;99.90
12688;DHT22;6408;59.388;17.798;2024-02-26T00:58:03;1.30;99.90
12688;DHT22;6408;59.388;17.798;2024-02-26T01:00:30;1.40;99.90
12688;DHT22;6408;59.388;17.798;2024-02-26T01:02:59;1.40;99.90
12688;DHT22;6408;59.388;17.798;2024-02-26T01:05:26;1.40;99.90
12688;DHT22;6408;59.388;17.798;2024-02-26T01:07:55;1.50;99.90
12688;DHT22;6408;59.388;17.798;2024-02-26T01:10:22;1.50;99.90
12688;DHT22;6408;59.388;17.798;2024-02-26T01:12:50;1.60;99.90
12688;DHT22;6408;59.388;17.798;2024-02-26T01:15:17;1.70;99.90
12688;DHT22;6408;59.388;17.798;2024-02-26T01:17:47;1.80;99.90
12688;DHT22;6408;59.388;17.798;2024-02-26T01:20:14;1.80;99.90
12688;DHT22;6408;59.388;17.798;2024-02-26T01:22:43;1.90;99.90
12688;DHT22;6408;59.388;17.798;2024-02-26T01:25:38;1.80;99.90
12688;DHT22;6408;59.388;17.798;2024-02-26T01:28:06;1.80;99.90
12688;DHT22;6408;59.388;17.798;2024-02-26T01:30:33;1.70;99.90
12688;DHT22;6408;59.388;17.798;2024-02-26T01:33:01;1.80;99.90
12688;DHT22;6408;59.388;17.798;2024-02-26T01:35:29;1.80;99.90
12688;DHT22;6408;59.388;17.798;2024-02-26T01:37:59;1.70;99.90
12688;DHT22;6408;59.388;17.798;2024-02-26T01:40:27;1.80;99.90
12688;DHT22;6408;59.388;17.798;2024-02-26T01:42:57;1.90;99.90
12688;DHT22;6408;59.388;17.798;2024-02-26T01:45:24;1.80;99.90
12688;DHT22;6408;59.388;17.798;2024-02-26T01:47:56;1.80;99.90
12688;DHT22;6408;59.388;17.798;2024-02-26T01:50:38;1.80;99.90
12688;DHT22;6408;59.388;17.798;2024-02-26T01:53:07;1.70;99.90
12688;DHT22;6408;59.388;17.798;2024-02-26T01:55:36;1.60;99.90
12688;DHT22;6408;59.388;17.798;2024-02-26T01:58:05;1.50;99.90
12688;DHT22;6408;59.388;17.798;2024-02-26T02:00:33;1.50;99.90
12688;DHT22;6408;59.388;17.798;2024-02-26T02:03:00;1.50;99.90
12688;DHT22;6408;59.388;17.798;2024-02-26T02:05:29;1.70;99.90
12688;DHT22;6408;59.388;17.798;2024-02-26T02:07:57;1.80;99.90
12688;DHT22;6408;59.388;17.798;2024-02-26T02:10:26;1.80;99.90
12688;DHT22;6408;59.388;17.798;2024-02-26T02:12:54;1.80;99.90
12688;DHT22;6408;59.388;17.798;2024-02-26T02:15:23;1.80;99.90
12688;DHT22;6408;59.388;17.798;2024-02-26T02:17:53;1.70;99.90
12688;DHT22;6408;59.388;17.798;2024-02-26T02:20:38;1.70;99.90
12688;DHT22;6408;59.388;17.798;2024-02-26T02:23:05;1.60;99.90
12688;DHT22;6408;59.388;17.798;2024-02-26T02:25:35;1.60;99.90
12688;DHT22;6408;59.388;17.798;2024-02-26T02:28:03;1.70;99.90
12688;DHT22;6408;59.388;17.798;2024-02-26T02:30:32;1.70;99.90
12688;DHT22;6408;59.388;17.798;2024-02-26T02:33:01;1.70;99.90
12688;DHT22;6408;59.388;17.798;2024-02-26T02:35:28;1.70;99.90
12688;DHT22;6408;59.388;17.798;2024-02-26T02:37:58;1.70;99.90
12688;DHT22;6408;59.388;17.798;2024-02-26T02:40:25;1.80;99.90
12688;DHT22;6408;59.388;17.798;2024-02-26T02:42:52;1.80;99.90
12688;DHT22;6408;59.388;17.798;2024-02-26T02:45:21;1.80;99.90
12688;DHT22;6408;59.388;17.798;2024-02-26T02:47:48;1.80;99.90
12688;DHT22;6408;59.388;17.798;2024-02-26T02:50:16;1.80;99.90
12688;DHT22;6408;59.388;17.798;2024-02-26T02:52:44;1.80;99.90
12688;DHT22;6408;59.388;17.798;2024-02-26T02:55:13;1.90;99.90
12688;DHT22;6408;59.388;17.798;2024-02-26T02:57:40;2.00;99.90
12688;DHT22;6408;59.388;17.798;2024-02-26T03:00:09;2.00;99.90
12688;DHT22;6408;59.388;17.798;2024-02-26T03:02:37;2.00;99.90
12688;DHT22;6408;59.388;17.798;2024-02-26T03:05:05;2.10;99.90
12688;DHT22;6408;59.388;17.798;2024-02-26T03:07:33;2.10;99.90
12688;DHT22;6408;59.388;17.798;2024-02-26T03:10:00;2.00;99.90
12688;DHT22;6408;59.388;17.798;2024-02-26T03:12:30;2.10;99.90
12688;DHT22;6408;59.388;17.798;2024-02-26T03:14:58;2.10;99.90
12688;DHT22;6408;59.388;17.798;2024-02-26T03:17:29;2.10;99.90
12688;DHT22;6408;59.388;17.798;2024-02-26T03:19:57;2.10;99.90
12688;DHT22;6408;59.388;17.798;2024-02-26T03:22:26;2.00;99.90
12688;DHT22;6408;59.388;17.798;2024-02-26T03:24:53;2.00;99.90
12688;DHT22;6408;59.388;17.798;2024-02-26T03:27:22;1.90;99.90
12688;DHT22;6408;59.388;17.798;2024-02-26T03:29:53;1.80;99.90
12688;DHT22;6408;59.388;17.798;2024-02-26T03:32:24;1.80;99.90
12688;DHT22;6408;59.388;17.798;2024-02-26T03:34:51;1.80;99.90
12688;DHT22;6408;59.388;17.798;2024-02-26T03:37:20;1.70;99.90
12688;DHT22;6408;59.388;17.798;2024-02-26T03:39:50;1.70;99.90
12688;DHT22;6408;59.388;17.798;2024-02-26T03:42:17;1.70;99.90
12688;DHT22;6408;59.388;17.798;2024-02-26T03:44:45;1.70;99.90
12688;DHT22;6408;59.388;17.798;2024-02-26T03:47:14;1.70;99.90
12688;DHT22;6408;59.388;17.798;2024-02-26T03:49:41;1.70;99.90
12688;DHT22;6408;59.388;17.798;2024-02-26T03:52:09;1.70;99.90
12688;DHT22;6408;59.388;17.798;2024-02-26T03:54:36;1.70;99.90
12688;DHT22;6408;59.388;17.798;2024-02-26T03:57:04;1.70;99.90
12688;DHT22;6408;59.388;17.798;2024-02-26T03:59:31;1.70;99.90
12688;DHT22;6408;59.388;17.798;2024-02-26T04:01:58;1.70;99.90
12688;DHT22;6408;59.388;17.798;2024-02-26T04:04:29;1.70;99.90
12688;DHT22;6408;59.388;17.798;2024-02-26T04:06:56;1.70;99.90
12688;DHT22;6408;59.388;17.798;2024-02-26T04:09:23;1.70;99.90
12688;DHT22;6408;59.388;17.798;2024-02-26T04:11:51;1.70;99.90
12688;DHT22;6408;59.388;17.798;2024-02-26T04:14:18;1.70;99.90
12688;DHT22;6408;59.388;17.798;2024-02-26T04:16:45;1.80;99.90
12688;DHT22;6408;59.388;17.798;2024-02-26T04:19:17;2.00;99.90
12688;DHT22;6408;59.388;17.798;2024-02-26T04:21:46;1.90;99.90
12688;DHT22;6408;59.388;17.798;2024-02-26T04:24:14;1.80;99.90
12688;DHT22;6408;59.388;17.798;2024-02-26T04:26:41;1.90;99.90
12688;DHT22;6408;59.388;17.798;2024-02-26T04:29:08;1.90;99.90
12688;DHT22;6408;59.388;17.798;2024-02-26T04:31:37;1.80;99.90
12688;DHT22;6408;59.388;17.798;2024-02-26T04:34:05;1.90;99.90
12688;DHT22;6408;59.388;17.798;2024-02-26T04:36:35;1.80;99.90
12688;DHT22;6408;59.388;17.798;2024-02-26T04:39:04;2.00;99.90
12688;DHT22;6408;59.388;17.798;2024-02-26T04:41:32;2.00;99.90
12688;DHT22;6408;59.388;17.798;2024-02-26T04:43:59;2.00;99.90
12688;DHT22;6408;59.388;17.798;2024-02-26T04:46:27;1.90;99.90
12688;DHT22;6408;59.388;17.798;2024-02-26T04:48:55;1.70;99.90
12688;DHT22;6408;59.388;17.798;2024-02-26T04:51:23;1.60;99.90
12688;DHT22;6408;59.388;17.798;2024-02-26T04:53:50;1.60;99.90
12688;DHT22;6408;59.388;17.798;2024-02-26T04:56:21;1.70;99.90
12688;DHT22;6408;59.388;17.798;2024-02-26T04:58:48;1.80;99.90
12688;DHT22;6408;59.388;17.798;2024-02-26T05:01:18;1.80;99.90
12688;DHT22;6408;59.388;17.798;2024-02-26T05:03:47;1.70;99.90
12688;DHT22;6408;59.388;17.798;2024-02-26T05:06:18;1.60;99.90
12688;DHT22;6408;59.388;17.798;2024-02-26T05:08:46;1.70;99.90
12688;DHT22;6408;59.388;17.798;2024-02-26T05:11:16;1.70;99.90
12688;DHT22;6408;59.388;17.798;2024-02-26T05:13:47;1.70;99.90
12688;DHT22;6408;59.388;17.798;2024-02-26T05:16:14;1.70;99.90
12688;DHT22;6408;59.388;17.798;2024-02-26T05:18:42;1.70;99.90
12688;DHT22;6408;59.388;17.798;2024-02-26T05:21:09;1.80;99.90
12688;DHT22;6408;59.388;17.798;2024-02-26T05:23:36;1.90;99.90
12688;DHT22;6408;59.388;17.798;2024-02-26T05:26:04;1.90;99.90
12688;DHT22;6408;59.388;17.798;2024-02-26T05:28:32;1.80;99.90
12688;DHT22;6408;59.388;17.798;2024-02-26T05:31:01;1.80;99.90
12688;DHT22;6408;59.388;17.798;2024-02-26T05:33:29;1.80;99.90
12688;DHT22;6408;59.388;17.798;2024-02-26T05:35:56;1.80;99.90
12688;DHT22;6408;59.388;17.798;2024-02-26T05:38:29;1.80;99.90
12688;DHT22;6408;59.388;17.798;2024-02-26T05:41:00;1.80;99.90
12688;DHT22;6408;59.388;17.798;2024-02-26T05:43:39;1.70;99.90
12688;DHT22;6408;59.388;17.798;2024-02-26T05:46:11;1.90;99.90
12688;DHT22;6408;59.388;17.798;2024-02-26T05:48:41;1.80;99.90
12688;DHT22;6408;59.388;17.798;2024-02-26T05:51:09;1.80;99.90
12688;DHT22;6408;59.388;17.798;2024-02-26T05:53:40;1.70;99.90
12688;DHT22;6408;59.388;17.798;2024-02-26T05:56:08;1.90;99.90
12688;DHT22;6408;59.388;17.798;2024-02-26T05:58:36;1.90;99.90
12688;DHT22;6408;59.388;17.798;2024-02-26T06:01:06;1.90;99.90
12688;DHT22;6408;59.388;17.798;2024-02-26T06:03:38;1.90;99.90
12688;DHT22;6408;59.388;17.798;2024-02-26T06:06:06;1.90;99.90
12688;DHT22;6408;59.388;17.798;2024-02-26T06:08:33;1.80;99.90
12688;DHT22;6408;59.388;17.798;2024-02-26T06:11:05;1.80;99.90
12688;DHT22;6408;59.388;17.798;2024-02-26T06:13:32;1.70;99.90
12688;DHT22;6408;59.388;17.798;2024-02-26T06:15:59;1.70;99.90
12688;DHT22;6408;59.388;17.798;2024-02-26T06:18:28;1.70;99.90
12688;DHT22;6408;59.388;17.798;2024-02-26T06:20:57;1.70;99.90
12688;DHT22;6408;59.388;17.798;2024-02-26T06:23:25;1.80;99.90
12688;DHT22;6408;59.388;17.798;2024-02-26T06:25:52;1.90;99.90
12688;DHT22;6408;59.388;17.798;2024-02-26T06:28:22;1.90;99.90
12688;DHT22;6408;59.388;17.798;2024-02-26T06:30:50;2.00;99.90
12688;DHT22;6408;59.388;17.798;2024-02-26T06:33:18;2.00;99.90
12688;DHT22;6408;59.388;17.798;2024-02-26T06:35:45;1.90;99.90
12688;DHT22;6408;59.388;17.798;2024-02-26T06:38:15;1.90;99.90
12688;DHT22;6408;59.388;17.798;2024-02-26T06:40:44;1.90;99.90
12688;DHT22;6408;59.388;17.798;2024-02-26T06:43:12;2.00;99.90
12688;DHT22;6408;59.388;17.798;2024-02-26T06:45:39;2.10;99.90
12688;DHT22;6408;59.388;17.798;2024-02-26T06:48:08;2.20;99.90
12688;DHT22;6408;59.388;17.798;2024-02-26T06:50:35;2.40;99.90
12688;DHT22;6408;59.388;17.798;2024-02-26T06:53:02;2.60;99.90
12688;DHT22;6408;59.388;17.798;2024-02-26T06:55:31;2.80;99.90
12688;DHT22;6408;59.388;17.798;2024-02-26T06:57:58;2.90;99.90
12688;DHT22;6408;59.388;17.798;2024-02-26T07:00:26;3.00;99.90
12688;DHT22;6408;59.388;17.798;2024-02-26T07:02:53;3.10;99.90
12688;DHT22;6408;59.388;17.798;2024-02-26T07:05:20;3.20;99.90
12688;DHT22;6408;59.388;17.798;2024-02-26T07:07:47;3.20;99.90
12688;DHT22;6408;59.388;17.798;2024-02-26T07:10:14;3.20;99.90
12688;DHT22;6408;59.388;17.798;2024-02-26T07:12:43;3.20;99.90
12688;DHT22;6408;59.388;17.798;2024-02-26T07:15:10;3.20;99.90
12688;DHT22;6408;59.388;17.798;2024-02-26T07:17:37;3.20;99.90
12688;DHT22;6408;59.388;17.798;2024-02-26T07:20:08;3.30;99.90
12688;DHT22;6408;59.388;17.798;2024-02-26T07:22:35;3.40;99.90
12688;DHT22;6408;59.388;17.798;2024-02-26T07:25:03;3.70;99.90
12688;DHT22;6408;59.388;17.798;2024-02-26T07:27:33;3.90;99.90
12688;DHT22;6408;59.388;17.798;2024-02-26T07:30:02;4.00;99.90
12688;DHT22;6408;59.388;17.798;2024-02-26T07:32:33;4.10;99.90
12688;DHT22;6408;59.388;17.798;2024-02-26T07:35:00;4.30;99.90
12688;DHT22;6408;59.388;17.798;2024-02-26T07:37:27;4.40;99.90
12688;DHT22;6408;59.388;17.798;2024-02-26T07:39:54;4.50;99.90
12688;DHT22;6408;59.388;17.798;2024-02-26T07:42:21;4.50;99.90
12688;DHT22;6408;59.388;17.798;2024-02-26T07:44:48;4.50;99.90
12688;DHT22;6408;59.388;17.798;2024-02-26T07:47:17;4.50;99.90
12688;DHT22;6408;59.388;17.798;2024-02-26T07:49:44;4.40;99.90
12688;DHT22;6408;59.388;17.798;2024-02-26T07:52:11;4.40;99.90
12688;DHT22;6408;59.388;17.798;2024-02-26T07:54:38;4.40;99.90
12688;DHT22;6408;59.388;17.798;2024-02-26T07:57:05;4.50;99.90
12688;DHT22;6408;59.388;17.798;2024-02-26T07:59:32;4.50;99.90
12688;DHT22;6408;59.388;17.798;2024-02-26T08:02:01;4.70;99.90
12688;DHT22;6408;59.388;17.798;2024-02-26T08:04:30;4.80;99.90
12688;DHT22;6408;59.388;17.798;2024-02-26T08:06:57;4.90;99.90
12688;DHT22;6408;59.388;17.798;2024-02-26T08:09:24;4.90;99.90
12688;DHT22;6408;59.388;17.798;2024-02-26T08:11:51;4.80;99.90
12688;DHT22;6408;59.388;17.798;2024-02-26T08:14:18;4.80;99.90
12688;DHT22;6408;59.388;17.798;2024-02-26T08:16:45;4.70;99.90
12688;DHT22;6408;59.388;17.798;2024-02-26T08:19:12;4.60;99.90
12688;DHT22;6408;59.388;17.798;2024-02-26T08:21:42;4.60;99.90
12688;DHT22;6408;59.388;17.798;2024-02-26T08:24:09;4.60;99.90
12688;DHT22;6408;59.388;17.798;2024-02-26T08:26:38;4.50;99.90
12688;DHT22;6408;59.388;17.798;2024-02-26T08:29:05;4.40;99.90
12688;DHT22;6408;59.388;17.798;2024-02-26T08:31:34;4.30;99.90
12688;DHT22;6408;59.388;17.798;2024-02-26T08:34:03;4.20;99.90
12688;DHT22;6408;59.388;17.798;2024-02-26T08:36:32;4.30;99.90
12688;DHT22;6408;59.388;17.798;2024-02-26T08:39:03;4.30;99.90
12688;DHT22;6408;59.388;17.798;2024-02-26T08:41:30;4.30;99.90
12688;DHT22;6408;59.388;17.798;2024-02-26T08:43:58;4.20;99.90
12688;DHT22;6408;59.388;17.798;2024-02-26T08:46:25;4.40;99.90
12688;DHT22;6408;59.388;17.798;2024-02-26T08:48:52;4.50;99.90
12688;DHT22;6408;59.388;17.798;2024-02-26T08:51:20;4.40;99.90
12688;DHT22;6408;59.388;17.798;2024-02-26T08:53:47;4.40;99.90
12688;DHT22;6408;59.388;17.798;2024-02-26T08:56:17;4.40;99.90
12688;DHT22;6408;59.388;17.798;2024-02-26T08:58:44;4.30;99.90
12688;DHT22;6408;59.388;17.798;2024-02-26T09:01:14;4.40;99.90
12688;DHT22;6408;59.388;17.798;2024-02-26T09:03:41;4.40;99.90
12688;DHT22;6408;59.388;17.798;2024-02-26T09:06:09;4.70;99.90
12688;DHT22;6408;59.388;17.798;2024-02-26T09:08:37;4.80;99.90
12688;DHT22;6408;59.388;17.798;2024-02-26T09:11:04;5.00;99.90
12688;DHT22;6408;59.388;17.798;2024-02-26T09:13:34;5.40;99.90
12688;DHT22;6408;59.388;17.798;2024-02-26T09:16:01;5.70;99.90
12688;DHT22;6408;59.388;17.798;2024-02-26T09:18:28;5.70;99.90
12688;DHT22;6408;59.388;17.798;2024-02-26T09:20:55;5.70;99.90
12688;DHT22;6408;59.388;17.798;2024-02-26T09:23:23;5.70;99.90
12688;DHT22;6408;59.388;17.798;2024-02-26T09:25:50;5.60;99.90
12688;DHT22;6408;59.388;17.798;2024-02-26T09:28:17;5.60;99.90
12688;DHT22;6408;59.388;17.798;2024-02-26T09:30:47;6.30;99.90
12688;DHT22;6408;59.388;17.798;2024-02-26T09:33:16;6.90;99.90
12688;DHT22;6408;59.388;17.798;2024-02-26T09:35:43;7.10;99.90
12688;DHT22;6408;59.388;17.798;2024-02-26T09:38:11;7.00;99.90
12688;DHT22;6408;59.388;17.798;2024-02-26T09:40:39;6.80;99.90
12688;DHT22;6408;59.388;17.798;2024-02-26T09:43:10;6.30;99.90
12688;DHT22;6408;59.388;17.798;2024-02-26T09:45:41;6.10;99.90
12688;DHT22;6408;59.388;17.798;2024-02-26T09:48:10;6.00;99.90
12688;DHT22;6408;59.388;17.798;2024-02-26T09:50:43;6.10;99.90
12688;DHT22;6408;59.388;17.798;2024-02-26T09:53:15;6.20;99.90
12688;DHT22;6408;59.388;17.798;2024-02-26T09:55:44;6.30;99.90
12688;DHT22;6408;59.388;17.798;2024-02-26T09:58:14;6.30;99.90
12688;DHT22;6408;59.388;17.798;2024-02-26T10:00:55;6.30;99.90
12688;DHT22;6408;59.388;17.798;2024-02-26T10:03:31;6.30;99.90
12688;DHT22;6408;59.388;17.798;2024-02-26T10:06:07;6.30;99.90
12688;DHT22;6408;59.388;17.798;2024-02-26T10:08:37;6.30;99.90
12688;DHT22;6408;59.388;17.798;2024-02-26T10:11:05;6.30;99.90
12688;DHT22;6408;59.388;17.798;2024-02-26T10:13:34;6.40;99.90
12688;DHT22;6408;59.388;17.798;2024-02-26T10:16:03;6.50;99.90
12688;DHT22;6408;59.388;17.798;2024-02-26T10:18:47;6.70;99.90
12688;DHT22;6408;59.388;17.798;2024-02-26T10:21:16;6.90;99.90
12688;DHT22;6408;59.388;17.798;2024-02-26T10:23:45;7.40;99.90
12688;DHT22;6408;59.388;17.798;2024-02-26T10:26:15;7.80;99.90
12688;DHT22;6408;59.388;17.798;2024-02-26T10:28:44;7.90;99.90
12688;DHT22;6408;59.388;17.798;2024-02-26T10:31:16;7.70;99.90
12688;DHT22;6408;59.388;17.798;2024-02-26T10:33:43;7.60;99.90
12688;DHT22;6408;59.388;17.798;2024-02-26T10:36:12;7.30;99.90
12688;DHT22;6408;59.388;17.798;2024-02-26T10:38:39;7.20;99.90
12688;DHT22;6408;59.388;17.798;2024-02-26T10:41:07;6.90;99.90
12688;DHT22;6408;59.388;17.798;2024-02-26T10:43:35;6.80;99.90
12688;DHT22;6408;59.388;17.798;2024-02-26T10:46:03;6.70;99.90
12688;DHT22;6408;59.388;17.798;2024-02-26T10:48:37;6.70;99.90
12688;DHT22;6408;59.388;17.798;2024-02-26T10:51:06;6.70;99.90
12688;DHT22;6408;59.388;17.798;2024-02-26T10:53:40;6.70;99.90
12688;DHT22;6408;59.388;17.798;2024-02-26T10:56:11;6.60;99.90
12688;DHT22;6408;59.388;17.798;2024-02-26T10:58:41;7.00;99.90
12688;DHT22;6408;59.388;17.798;2024-02-26T11:01:10;7.70;99.90
12688;DHT22;6408;59.388;17.798;2024-02-26T11:03:39;8.50;99.90
12688;DHT22;6408;59.388;17.798;2024-02-26T11:06:21;10.30;99.90
12688;DHT22;6408;59.388;17.798;2024-02-26T11:08:54;11.10;99.90
12688;DHT22;6408;59.388;17.798;2024-02-26T11:11:22;11.30;99.90
12688;DHT22;6408;59.388;17.798;2024-02-26T11:13:53;11.70;99.90
12688;DHT22;6408;59.388;17.798;2024-02-26T11:16:22;12.40;99.90
12688;DHT22;6408;59.388;17.798;2024-02-26T11:18:49;13.60;99.90
12688;DHT22;6408;59.388;17.798;2024-02-26T11:21:21;14.10;99.90
12688;DHT22;6408;59.388;17.798;2024-02-26T11:23:57;12.90;99.90
12688;DHT22;6408;59.388;17.798;2024-02-26T11:26:25;11.20;99.90
12688;DHT22;6408;59.388;17.798;2024-02-26T11:28:54;10.30;99.90
12688;DHT22;6408;59.388;17.798;2024-02-26T11:31:34;10.20;99.90
12688;DHT22;6408;59.388;17.798;2024-02-26T11:39:53;10.50;99.90
12688;DHT22;6408;59.388;17.798;2024-02-26T11:42:45;9.60;99.90
12688;DHT22;6408;59.388;17.798;2024-02-26T11:45:55;8.90;99.90
12688;DHT22;6408;59.388;17.798;2024-02-26T11:48:36;8.60;99.90
12688;DHT22;6408;59.388;17.798;2024-02-26T11:51:25;8.30;99.90
12688;DHT22;6408;59.388;17.798;2024-02-26T11:53:56;8.20;99.90
12688;DHT22;6408;59.388;17.798;2024-02-26T11:56:40;8.10;99.90
12688;DHT22;6408;59.388;17.798;2024-02-26T11:59:13;8.00;99.90
12688;DHT22;6408;59.388;17.798;2024-02-26T12:02:07;7.90;99.90
12688;DHT22;6408;59.388;17.798;2024-02-26T12:04:36;7.80;99.90
12688;DHT22;6408;59.388;17.798;2024-02-26T12:07:12;7.80;99.90
12688;DHT22;6408;59.388;17.798;2024-02-26T12:10:14;7.80;99.90
12688;DHT22;6408;59.388;17.798;2024-02-26T12:12:48;7.60;99.90
12688;DHT22;6408;59.388;17.798;2024-02-26T12:15:17;7.60;99.90
12688;DHT22;6408;59.388;17.798;2024-02-26T12:17:49;7.50;99.90
12688;DHT22;6408;59.388;17.798;2024-02-26T12:20:21;7.40;99.90
12688;DHT22;6408;59.388;17.798;2024-02-26T12:22:50;7.50;99.90
12688;DHT22;6408;59.388;17.798;2024-02-26T12:25:24;7.70;99.90
12688;DHT22;6408;59.388;17.798;2024-02-26T12:27:53;8.00;99.90
12688;DHT22;6408;59.388;17.798;2024-02-26T12:30:21;8.40;99.90
12688;DHT22;6408;59.388;17.798;2024-02-26T12:32:49;10.20;99.90
12688;DHT22;6408;59.388;17.798;2024-02-26T12:35:27;11.30;99.90
12688;DHT22;6408;59.388;17.798;2024-02-26T12:38:06;12.50;99.90
12688;DHT22;6408;59.388;17.798;2024-02-26T12:44:15;12.70;99.90
12688;DHT22;6408;59.388;17.798;2024-02-26T12:46:51;11.70;99.90
12688;DHT22;6408;59.388;17.798;2024-02-26T12:49:47;11.40;99.90
12688;DHT22;6408;59.388;17.798;2024-02-26T12:52:43;10.40;99.90
12688;DHT22;6408;59.388;17.798;2024-02-26T12:55:14;9.20;99.90
12688;DHT22;6408;59.388;17.798;2024-02-26T12:58:09;8.50;99.90
12688;DHT22;6408;59.388;17.798;2024-02-26T13:00:42;8.20;99.90
12688;DHT22;6408;59.388;17.798;2024-02-26T13:03:10;8.10;99.90
12688;DHT22;6408;59.388;17.798;2024-02-26T13:05:52;8.00;99.90
12688;DHT22;6408;59.388;17.798;2024-02-26T13:08:33;8.10;99.90
12688;DHT22;6408;59.388;17.798;2024-02-26T13:11:39;8.20;99.90
12688;DHT22;6408;59.388;17.798;2024-02-26T13:14:26;8.00;99.90
12688;DHT22;6408;59.388;17.798;2024-02-26T13:17:00;7.90;99.90
12688;DHT22;6408;59.388;17.798;2024-02-26T13:19:28;7.80;99.90
12688;DHT22;6408;59.388;17.798;2024-02-26T13:22:02;7.70;99.90
12688;DHT22;6408;59.388;17.798;2024-02-26T13:24:37;7.50;99.90
12688;DHT22;6408;59.388;17.798;2024-02-26T13:30:50;7.30;99.90
12688;DHT22;6408;59.388;17.798;2024-02-26T13:37:13;7.30;99.90
12688;DHT22;6408;59.388;17.798;2024-02-26T13:39:48;7.30;99.90
12688;DHT22;6408;59.388;17.798;2024-02-26T13:42:23;7.30;99.90
12688;DHT22;6408;59.388;17.798;2024-02-26T13:51:37;7.10;99.90
12688;DHT22;6408;59.388;17.798;2024-02-26T13:54:21;7.00;99.90
12688;DHT22;6408;59.388;17.798;2024-02-26T13:57:15;6.90;99.90
12688;DHT22;6408;59.388;17.798;2024-02-26T13:59:44;6.80;99.90
12688;DHT22;6408;59.388;17.798;2024-02-26T14:02:34;6.80;99.90
12688;DHT22;6408;59.388;17.798;2024-02-26T14:05:41;6.80;99.90
12688;DHT22;6408;59.388;17.798;2024-02-26T14:08:10;6.70;99.90
12688;DHT22;6408;59.388;17.798;2024-02-26T14:14:03;6.60;99.90
12688;DHT22;6408;59.388;17.798;2024-02-26T14:17:01;6.50;99.90
12688;DHT22;6408;59.388;17.798;2024-02-26T14:19:43;6.50;99.90
12688;DHT22;6408;59.388;17.798;2024-02-26T14:23:52;6.40;99.90
12688;DHT22;6408;59.388;17.798;2024-02-26T14:25:46;6.40;99.90
12688;DHT22;6408;59.388;17.798;2024-02-26T14:28:36;6.30;99.90
12688;DHT22;6408;59.388;17.798;2024-02-26T14:31:16;6.30;99.90
12688;DHT22;6408;59.388;17.798;2024-02-26T14:33:47;6.20;99.90
12688;DHT22;6408;59.388;17.798;2024-02-26T14:36:46;6.20;99.90
12688;DHT22;6408;59.388;17.798;2024-02-26T14:39:49;6.00;99.90
12688;DHT22;6408;59.388;17.798;2024-02-26T14:42:18;5.90;99.90
12688;DHT22;6408;59.388;17.798;2024-02-26T14:44:55;6.00;99.90
12688;DHT22;6408;59.388;17.798;2024-02-26T14:47:44;5.90;99.90
12688;DHT22;6408;59.388;17.798;2024-02-26T14:50:18;5.90;99.90
12688;DHT22;6408;59.388;17.798;2024-02-26T14:52:51;5.90;99.90
12688;DHT22;6408;59.388;17.798;2024-02-26T14:55:24;6.00;99.90
12688;DHT22;6408;59.388;17.798;2024-02-26T14:57:52;5.90;99.90
12688;DHT22;6408;59.388;17.798;2024-02-26T15:00:23;5.90;99.90
12688;DHT22;6408;59.388;17.798;2024-02-26T15:02:53;6.00;99.90
12688;DHT22;6408;59.388;17.798;2024-02-26T15:05:21;6.00;99.90
12688;DHT22;6408;59.388;17.798;2024-02-26T15:07:50;6.10;99.90
12688;DHT22;6408;59.388;17.798;2024-02-26T15:10:17;5.90;99.90
12688;DHT22;6408;59.388;17.798;2024-02-26T15:12:50;5.90;99.90
12688;DHT22;6408;59.388;17.798;2024-02-26T15:15:29;6.00;99.90
12688;DHT22;6408;59.388;17.798;2024-02-26T15:18:16;5.90;99.90
12688;DHT22;6408;59.388;17.798;2024-02-26T15:20:46;5.80;99.90
12688;DHT22;6408;59.388;17.798;2024-02-26T15:23:15;5.70;99.90
12688;DHT22;6408;59.388;17.798;2024-02-26T15:25:44;5.70;99.90
12688;DHT22;6408;59.388;17.798;2024-02-26T15:28:14;5.70;99.90
12688;DHT22;6408;59.388;17.798;2024-02-26T15:30:42;5.60;99.90
12688;DHT22;6408;59.388;17.798;2024-02-26T15:33:17;5.70;99.90
12688;DHT22;6408;59.388;17.798;2024-02-26T15:35:44;5.50;99.90
12688;DHT22;6408;59.388;17.798;2024-02-26T15:38:11;5.50;99.90
12688;DHT22;6408;59.388;17.798;2024-02-26T15:40:40;5.50;99.90
12688;DHT22;6408;59.388;17.798;2024-02-26T15:43:10;5.50;99.90
12688;DHT22;6408;59.388;17.798;2024-02-26T15:45:37;5.40;99.90
12688;DHT22;6408;59.388;17.798;2024-02-26T15:48:06;5.40;99.90
12688;DHT22;6408;59.388;17.798;2024-02-26T15:50:35;5.40;99.90
12688;DHT22;6408;59.388;17.798;2024-02-26T15:53:06;5.20;99.90
12688;DHT22;6408;59.388;17.798;2024-02-26T15:55:34;5.30;99.90
12688;DHT22;6408;59.388;17.798;2024-02-26T15:58:02;5.20;99.90
12688;DHT22;6408;59.388;17.798;2024-02-26T16:00:31;5.30;99.90
12688;DHT22;6408;59.388;17.798;2024-02-26T16:02:58;5.30;99.90
12688;DHT22;6408;59.388;17.798;2024-02-26T16:05:25;5.30;99.90
12688;DHT22;6408;59.388;17.798;2024-02-26T16:07:56;5.20;99.90
12688;DHT22;6408;59.388;17.798;2024-02-26T16:10:25;5.10;99.90
12688;DHT22;6408;59.388;17.798;2024-02-26T16:12:55;5.10;99.90
12688;DHT22;6408;59.388;17.798;2024-02-26T16:15:23;5.10;99.90
12688;DHT22;6408;59.388;17.798;2024-02-26T16:17:50;5.00;99.90
12688;DHT22;6408;59.388;17.798;2024-02-26T16:20:21;4.90;99.90
12688;DHT22;6408;59.388;17.798;2024-02-26T16:22:50;4.90;99.90
12688;DHT22;6408;59.388;17.798;2024-02-26T16:25:19;4.90;99.90
12688;DHT22;6408;59.388;17.798;2024-02-26T16:27:46;4.80;99.90
12688;DHT22;6408;59.388;17.798;2024-02-26T16:30:14;4.70;99.90
12688;DHT22;6408;59.388;17.798;2024-02-26T16:32:41;4.60;99.90
12688;DHT22;6408;59.388;17.798;2024-02-26T16:35:08;4.60;99.90